x

Portland 12 Nm Southeast Of Portland,me (44007) Wave Buoy

4:50 - Mon 23rd Jan 2017 All times are EST. -5 hours from GMT.

  • Sig Wave height 4.9ft
  • Swell Direction
  • Peak Period 7s
  • Average Period 5s
  • Wind
    25mph, 27mph gusts
  • Sea Temp 43°f
  • Ar Temp 34°f
  • Sea Pressure 1018.2mb
  • Portland 12 Nm Southeast Of Portland,me
  • Portland 12 Nm Southeast Of Portland,me

More Historic Weather Station data

Upgrade to MSW Pro to gain access to the past 30 days of data for over 8000 Wavebouys and Weather Stations around the globe.

Join Pro

Comparision Forecast

View Surf forecast
   
Seg 01/23 4:50 5ft 7s 5s 25 27 mph 1018.2mb 43f 34f
3:50 5ft 13s 5s 22 27 mph 1018.4mb 43f 34f
2:50 5.5ft 6s 5s 20 25 mph 1018.1mb 43f 35f
1:50 6ft 6s 5s 20 25 mph 1017.7mb 43f 35f
12:50 5ft 6s 5s 22 27 mph 1017.2mb 43f 35f
Dom 01/22 11:50 5ft 11s 5s 22 27 mph 1017.2mb 43f 36f
10:50 5ft 12s 5s 22 27 mph 1017.2mb 43f 36f
9:50 5ft 13s 5s 22 29 mph 1016.5mb 44f 37f
8:50 5ft 6s 5s 20 22 mph 1016.1mb 44f 38f
7:50 5ft 12s 5s 22 27 mph 1015.3mb 44f 38f
6:50 4.5ft 13s 5s 22 25 mph 1014.8mb 44f 39f
5:50 4.5ft 14s 5s 20 25 mph 1013.7mb 44f 39f
4:50 4.5ft 14s 6s 18 20 mph 1013.1mb 43f 39f
3:50 4ft 14s 6s 11 16 mph 1013.1mb 43f 38f
2:50 4.5ft 11s 6s 11 16 mph 1012.7mb 43f 38f
1:50 4.5ft 11s 6s 16 20 mph 1011.7mb 44f 38f
12:50 5ft 13s 6s 18 20 mph 1011.5mb 43f 37f
11:50 6ft 11s 6s 18 22 mph 1011.2mb 43f 37f
10:50 5ft 13s 5s 18 22 mph 1010.8mb 43f 37f
9:50 4.5ft 11s 5s 20 22 mph 1010.8mb 43f 38f
8:50 4.5ft 12s 6s 20 25 mph 1010mb 43f 38f
7:50 4ft 11s 6s 20 25 mph 1009.4mb 43f 39f
6:50 4ft 13s 9s 18 20 mph 1008.6mb 42f 40f
5:50 4ft 12s 9s 9 11 mph 1007.7mb 42f 40f
4:50 4ft 13s 9s 7 9 mph 1007.4mb 42f 40f
3:50 3.5ft 13s 9s 4 7 mph 1007.2mb 42f 40f
2:50 4.5ft 14s 9s 4 7 mph 1006.8mb 42f 40f
1:50 4.5ft 12s 9s 7
mph
1006.7mb 42f 40f
12:50 4.5ft 13s 9s 4 7 mph 1007.2mb 42f 40f
Sáb 01/21 11:50 4.5ft 14s 9s 2
mph
1006.9mb 42f 41f
10:50 4.5ft 13s 9s 2 4 mph 1006.7mb 42f 42f
9:50 4.5ft 12s 9s 2
mph
1007mb 42f 42f
8:50 4.5ft 13s 9s 2 4 mph 1007mb 42f 43f
7:50 4ft 11s 8s 4
mph
1006.6mb 42f 42f
6:50 4ft 11s 8s 2 4 mph 1007.2mb 42f 42f
5:50 4ft 12s 8s 4
mph
1006.6mb 42f 42f
4:50 3.5ft 12s 7s 4
mph
1006.1mb 42f 41f
3:50 4ft 13s 8s 7 9 mph 1006.2mb 41f 41f
2:50 4ft 11s 8s 9 11 mph 1006.7mb 41f 40f
1:50 4.5ft 11s 8s 4 7 mph 1006.2mb 41f 40f
12:50 5ft 11s 8s 9 11 mph 1006.9mb 41f 39f
11:50 5ft 11s 8s 9 13 mph 1008mb 41f 38f
10:50 4.5ft 10s 8s 4 7 mph 1008.9mb 42f 38f
9:50 4ft 10s 7s 9 11 mph 1009.9mb 42f 38f
8:50 3.5ft 11s 6s 16 18 mph 1009.8mb 42f 39f
7:50 4ft 11s 6s 13 18 mph 1009.4mb 42f 39f
6:50 3.5ft 12s 6s 16 18 mph 1009.8mb 42f 39f
5:50 3.5ft 11s 5s 16 18 mph 1009.9mb 42f 40f
4:50 3.5ft 11s 6s 18 20 mph 1010.4mb 42f 40f
3:50 3.5ft 11s 7s 13 16 mph 1011mb 42f 40f
2:50 3.5ft 11s 7s 9 11 mph 1012mb 42f 40f
1:50 3.5ft 11s 7s 11 13 mph 1012.5mb 42f 40f
12:50 3.5ft 10s 7s 9 11 mph 1012.3mb 42f 39f
Sex 01/20 11:50 3ft 9s 8s 9 11 mph 1012.9mb 42f 39f
10:50 3.5ft 10s 8s 9 11 mph 1013.6mb 42f 40f
9:50 3.5ft 10s 8s 11 13 mph 1013.6mb 42f 40f
8:50 3.5ft 11s 8s 9 11 mph 1013.9mb 42f 40f
7:50 3ft 10s 8s 7 9 mph 1014.3mb 42f 40f
6:50 3ft 10s 8s 4 7 mph 1014.3mb 43f 40f
5:50 3.5ft 11s 8s 4 9 mph 1014.4mb 42f 39f
4:50 3.5ft 11s 8s 2 7 mph 1014.7mb 42f 39f
3:50 4ft 11s 8s 2 4 mph 1014.8mb 42f 39f
2:50 4ft 11s 8s  -  mph 1015mb 42f 38f
1:50 3.5ft 11s 8s 4 7 mph 1015mb 42f 38f
12:50 4.5ft 10s 9s 9 11 mph 1015.5mb 42f 39f
11:50 4.5ft 11s 9s 7 9 mph 1016.4mb 42f 38f
10:50 4.5ft 11s 9s 9
mph
1017mb 42f 38f
9:50 4.5ft 10s 8s 11 13 mph 1017mb 42f 37f
8:50 5ft 10s 9s 9 11 mph 1016.9mb 42f 37f
7:50 4.5ft 10s 9s 9
mph
1017mb 42f 36f
6:50 4.5ft 11s 9s 7 9 mph 1016.5mb 43f 35f
5:50 4.5ft 11s 8s 9 11 mph 1016.3mb 43f 36f
4:50 4.5ft 11s 8s 9 11 mph 1016.1mb 43f 36f
3:50 6ft 11s 8s 11 13 mph 1015.6mb 44f 38f
2:50 5ft 9s 7s 13 18 mph 1015.2mb 43f 39f
1:50 5.5ft 11s 8s 16 22 mph 1015.1mb 42f 39f
12:50 5.5ft 11s 9s 11 13 mph 1015.7mb 41f 38f
Qui 01/19 11:50 5.5ft 10s 9s 11 13 mph 1016.9mb 41f 38f
10:50 5ft 10s 9s 9 11 mph 1016.7mb 41f 38f
9:50 5ft 10s 8s 9 11 mph 1016.4mb 41f 39f
8:50 4.5ft 9s 8s 9 11 mph 1015.8mb 42f 39f
7:50 4.5ft 9s 8s 9 13 mph 1015.5mb 43f 39f
6:50 4.5ft 10s 7s 9 11 mph 1014.9mb 43f 40f
5:50 4ft 10s 7s 4
mph
1014.3mb 43f 40f
4:50 4ft 10s 7s 2
mph
1013.5mb 43f 39f
3:50 4.5ft 9s 7s 4
mph
1013.5mb 43f 37f
2:50 4.5ft 9s 7s 2 4 mph 1013.1mb 43f 37f
1:50 4.5ft 9s 7s 2 4 mph 1013.5mb 43f 37f
12:50 5ft 8s 7s 7 9 mph 1013.6mb 42f 33f
11:50 5.5ft 8s 7s 9 13 mph 1014.4mb 42f 32f